sensor_id;sensor_type;location;lat;lon;timestamp;P1;durP1;ratioP1;P2;durP2;ratioP2
20802;SDS011;10562;-33.856;151.182;2022-09-09T00:00:43;217.55;;;201.35;;
20802;SDS011;10562;-33.856;151.182;2022-09-09T00:03:17;208.60;;;193.52;;
20802;SDS011;10562;-33.856;151.182;2022-09-09T00:05:52;203.32;;;188.52;;
20802;SDS011;10562;-33.856;151.182;2022-09-09T00:08:35;209.07;;;193.88;;
20802;SDS011;10562;-33.856;151.182;2022-09-09T00:11:13;217.82;;;201.82;;
20802;SDS011;10562;-33.856;151.182;2022-09-09T00:13:55;222.75;;;206.75;;
20802;SDS011;10562;-33.856;151.182;2022-09-09T00:16:30;217.88;;;202.27;;
20802;SDS011;10562;-33.856;151.182;2022-09-09T00:19:06;226.25;;;209.82;;
20802;SDS011;10562;-33.856;151.182;2022-09-09T00:21:43;218.73;;;203.13;;
20802;SDS011;10562;-33.856;151.182;2022-09-09T00:24:23;227.38;;;210.80;;
20802;SDS011;10562;-33.856;151.182;2022-09-09T00:26:57;207.60;;;192.57;;
20802;SDS011;10562;-33.856;151.182;2022-09-09T00:29:37;212.30;;;197.05;;
20802;SDS011;10562;-33.856;151.182;2022-09-09T00:32:14;207.57;;;192.77;;
20802;SDS011;10562;-33.856;151.182;2022-09-09T00:34:47;195.05;;;181.07;;
20802;SDS011;10562;-33.856;151.182;2022-09-09T00:37:21;178.50;;;165.63;;
20802;SDS011;10562;-33.856;151.182;2022-09-09T00:39:57;177.05;;;164.35;;
20802;SDS011;10562;-33.856;151.182;2022-09-09T00:42:32;156.23;;;144.93;;
20802;SDS011;10562;-33.856;151.182;2022-09-09T00:45:18;154.95;;;143.48;;
20802;SDS011;10562;-33.856;151.182;2022-09-09T00:47:57;164.55;;;152.63;;
20802;SDS011;10562;-33.856;151.182;2022-09-09T00:50:41;164.32;;;152.50;;
20802;SDS011;10562;-33.856;151.182;2022-09-09T00:53:24;157.15;;;145.75;;
20802;SDS011;10562;-33.856;151.182;2022-09-09T00:56:09;149.35;;;138.52;;
20802;SDS011;10562;-33.856;151.182;2022-09-09T00:58:43;143.23;;;132.90;;
20802;SDS011;10562;-33.856;151.182;2022-09-09T01:01:22;152.90;;;141.82;;
20802;SDS011;10562;-33.856;151.182;2022-09-09T01:03:53;140.73;;;130.75;;
20802;SDS011;10562;-33.856;151.182;2022-09-09T01:06:26;143.77;;;133.65;;
20802;SDS011;10562;-33.856;151.182;2022-09-09T01:09:04;146.63;;;136.13;;
20802;SDS011;10562;-33.856;151.182;2022-09-09T01:11:51;137.85;;;128.02;;
20802;SDS011;10562;-33.856;151.182;2022-09-09T01:14:30;142.48;;;131.88;;
20802;SDS011;10562;-33.856;151.182;2022-09-09T01:17:11;128.45;;;119.13;;
20802;SDS011;10562;-33.856;151.182;2022-09-09T01:19:55;122.20;;;113.50;;
20802;SDS011;10562;-33.856;151.182;2022-09-09T01:22:34;125.78;;;116.88;;
20802;SDS011;10562;-33.856;151.182;2022-09-09T01:25:20;113.78;;;105.68;;
20802;SDS011;10562;-33.856;151.182;2022-09-09T01:28:22;90.55;;;84.05;;
20802;SDS011;10562;-33.856;151.182;2022-09-09T01:31:01;81.93;;;75.93;;
20802;SDS011;10562;-33.856;151.182;2022-09-09T01:33:34;71.43;;;66.13;;
20802;SDS011;10562;-33.856;151.182;2022-09-09T01:36:05;78.57;;;72.68;;
20802;SDS011;10562;-33.856;151.182;2022-09-09T01:38:39;79.55;;;73.72;;
20802;SDS011;10562;-33.856;151.182;2022-09-09T01:41:10;77.43;;;71.60;;
20802;SDS011;10562;-33.856;151.182;2022-09-09T01:43:42;75.78;;;70.25;;
20802;SDS011;10562;-33.856;151.182;2022-09-09T01:46:13;84.28;;;78.10;;
20802;SDS011;10562;-33.856;151.182;2022-09-09T01:51:35;82.20;;;76.20;;
20802;SDS011;10562;-33.856;151.182;2022-09-09T01:57:30;74.35;;;68.85;;
20802;SDS011;10562;-33.856;151.182;2022-09-09T02:00:06;67.00;;;62.10;;
20802;SDS011;10562;-33.856;151.182;2022-09-09T02:02:39;67.10;;;62.20;;
20802;SDS011;10562;-33.856;151.182;2022-09-09T02:05:19;61.72;;;57.13;;
20802;SDS011;10562;-33.856;151.182;2022-09-09T02:07:59;61.42;;;56.72;;
20802;SDS011;10562;-33.856;151.182;2022-09-09T02:10:36;61.85;;;57.28;;
20802;SDS011;10562;-33.856;151.182;2022-09-09T02:13:14;60.15;;;55.72;;
20802;SDS011;10562;-33.856;151.182;2022-09-09T02:15:51;64.35;;;59.55;;
20802;SDS011;10562;-33.856;151.182;2022-09-09T02:18:25;64.75;;;59.88;;
20802;SDS011;10562;-33.856;151.182;2022-09-09T02:20:59;56.58;;;52.40;;
20802;SDS011;10562;-33.856;151.182;2022-09-09T02:23:31;70.22;;;65.13;;
20802;SDS011;10562;-33.856;151.182;2022-09-09T02:26:02;66.82;;;61.95;;
20802;SDS011;10562;-33.856;151.182;2022-09-09T02:28:34;76.13;;;70.50;;
20802;SDS011;10562;-33.856;151.182;2022-09-09T02:31:10;93.97;;;87.45;;
20802;SDS011;10562;-33.856;151.182;2022-09-09T02:33:42;99.28;;;92.40;;
20802;SDS011;10562;-33.856;151.182;2022-09-09T02:36:16;116.97;;;109.05;;
20802;SDS011;10562;-33.856;151.182;2022-09-09T02:38:49;12.82;;;11.93;;
20802;SDS011;10562;-33.856;151.182;2022-09-09T02:41:22;6.10;;;5.63;;
20802;SDS011;10562;-33.856;151.182;2022-09-09T02:44:17;4.00;;;2.63;;
20802;SDS011;10562;-33.856;151.182;2022-09-09T02:47:03;2.17;;;1.00;;
20802;SDS011;10562;-33.856;151.182;2022-09-09T02:49:48;1.05;;;0.80;;
20802;SDS011;10562;-33.856;151.182;2022-09-09T02:52:33;1.10;;;0.77;;
20802;SDS011;10562;-33.856;151.182;2022-09-09T02:55:17;2.85;;;0.90;;
20802;SDS011;10562;-33.856;151.182;2022-09-09T02:57:52;1.45;;;0.60;;
20802;SDS011;10562;-33.856;151.182;2022-09-09T03:00:26;1.30;;;0.70;;
20802;SDS011;10562;-33.856;151.182;2022-09-09T03:02:59;2.67;;;0.60;;
20802;SDS011;10562;-33.856;151.182;2022-09-09T03:05:29;0.85;;;0.60;;
20802;SDS011;10562;-33.856;151.182;2022-09-09T03:08:00;1.23;;;0.70;;
20802;SDS011;10562;-33.856;151.182;2022-09-09T03:10:31;1.00;;;0.70;;
20802;SDS011;10562;-33.856;151.182;2022-09-09T03:13:03;1.85;;;0.40;;
20802;SDS011;10562;-33.856;151.182;2022-09-09T03:15:37;0.68;;;0.50;;
20802;SDS011;10562;-33.856;151.182;2022-09-09T03:18:12;1.10;;;0.68;;
20802;SDS011;10562;-33.856;151.182;2022-09-09T03:20:43;1.10;;;0.68;;
20802;SDS011;10562;-33.856;151.182;2022-09-09T03:23:15;0.60;;;0.60;;
20802;SDS011;10562;-33.856;151.182;2022-09-09T03:25:47;0.98;;;0.60;;
20802;SDS011;10562;-33.856;151.182;2022-09-09T03:28:19;0.50;;;0.47;;
20802;SDS011;10562;-33.856;151.182;2022-09-09T03:30:51;0.80;;;0.60;;
20802;SDS011;10562;-33.856;151.182;2022-09-09T03:33:28;0.75;;;0.60;;
20802;SDS011;10562;-33.856;151.182;2022-09-09T03:36:00;1.15;;;0.63;;
20802;SDS011;10562;-33.856;151.182;2022-09-09T03:38:31;1.85;;;0.70;;
20802;SDS011;10562;-33.856;151.182;2022-09-09T03:41:02;2.25;;;0.60;;
20802;SDS011;10562;-33.856;151.182;2022-09-09T03:43:33;1.63;;;0.70;;
20802;SDS011;10562;-33.856;151.182;2022-09-09T03:46:04;3.28;;;0.93;;
20802;SDS011;10562;-33.856;151.182;2022-09-09T03:48:37;3.65;;;1.10;;
20802;SDS011;10562;-33.856;151.182;2022-09-09T03:51:08;3.90;;;1.27;;
20802;SDS011;10562;-33.856;151.182;2022-09-09T03:53:38;3.70;;;1.15;;
20802;SDS011;10562;-33.856;151.182;2022-09-09T03:56:09;5.63;;;1.15;;
20802;SDS011;10562;-33.856;151.182;2022-09-09T03:58:40;2.92;;;1.17;;
20802;SDS011;10562;-33.856;151.182;2022-09-09T04:01:11;2.95;;;1.17;;
20802;SDS011;10562;-33.856;151.182;2022-09-09T04:03:45;4.07;;;1.27;;
20802;SDS011;10562;-33.856;151.182;2022-09-09T04:06:16;1.17;;;0.80;;
20802;SDS011;10562;-33.856;151.182;2022-09-09T04:08:47;0.98;;;0.80;;
20802;SDS011;10562;-33.856;151.182;2022-09-09T04:11:18;1.55;;;0.70;;
20802;SDS011;10562;-33.856;151.182;2022-09-09T04:13:51;0.98;;;0.70;;
20802;SDS011;10562;-33.856;151.182;2022-09-09T04:16:22;1.58;;;0.60;;
20802;SDS011;10562;-33.856;151.182;2022-09-09T04:18:54;0.80;;;0.60;;
20802;SDS011;10562;-33.856;151.182;2022-09-09T04:21:25;1.48;;;0.65;;
20802;SDS011;10562;-33.856;151.182;2022-09-09T04:23:56;1.35;;;0.68;;
20802;SDS011;10562;-33.856;151.182;2022-09-09T04:26:27;0.73;;;0.50;;
20802;SDS011;10562;-33.856;151.182;2022-09-09T04:28:58;2.13;;;0.70;;
20802;SDS011;10562;-33.856;151.182;2022-09-09T04:31:28;1.63;;;0.63;;
20802;SDS011;10562;-33.856;151.182;2022-09-09T04:34:03;1.10;;;0.68;;
20802;SDS011;10562;-33.856;151.182;2022-09-09T04:36:34;0.57;;;0.57;;
20802;SDS011;10562;-33.856;151.182;2022-09-09T04:39:05;1.00;;;0.70;;
20802;SDS011;10562;-33.856;151.182;2022-09-09T04:41:36;1.15;;;0.50;;
20802;SDS011;10562;-33.856;151.182;2022-09-09T04:44:07;0.50;;;0.50;;
20802;SDS011;10562;-33.856;151.182;2022-09-09T04:46:39;1.80;;;0.80;;
20802;SDS011;10562;-33.856;151.182;2022-09-09T04:49:11;0.88;;;0.60;;
20802;SDS011;10562;-33.856;151.182;2022-09-09T04:51:42;1.58;;;0.60;;
20802;SDS011;10562;-33.856;151.182;2022-09-09T04:54:16;1.55;;;0.60;;
20802;SDS011;10562;-33.856;151.182;2022-09-09T04:56:46;2.20;;;0.70;;
20802;SDS011;10562;-33.856;151.182;2022-09-09T04:59:19;1.20;;;0.60;;
20802;SDS011;10562;-33.856;151.182;2022-09-09T05:01:50;1.00;;;0.70;;
20802;SDS011;10562;-33.856;151.182;2022-09-09T05:04:25;1.75;;;0.80;;
20802;SDS011;10562;-33.856;151.182;2022-09-09T05:06:56;0.88;;;0.57;;
20802;SDS011;10562;-33.856;151.182;2022-09-09T05:09:27;0.98;;;0.70;;
20802;SDS011;10562;-33.856;151.182;2022-09-09T05:11:58;1.40;;;0.70;;
20802;SDS011;10562;-33.856;151.182;2022-09-09T05:14:29;0.75;;;0.63;;
20802;SDS011;10562;-33.856;151.182;2022-09-09T05:17:06;2.47;;;0.80;;
20802;SDS011;10562;-33.856;151.182;2022-09-09T05:19:39;1.17;;;0.50;;
20802;SDS011;10562;-33.856;151.182;2022-09-09T05:22:10;1.65;;;0.60;;
20802;SDS011;10562;-33.856;151.182;2022-09-09T05:24:40;6.47;;;1.77;;
20802;SDS011;10562;-33.856;151.182;2022-09-09T05:27:11;8.30;;;1.90;;
20802;SDS011;10562;-33.856;151.182;2022-09-09T05:29:42;6.63;;;1.83;;
20802;SDS011;10562;-33.856;151.182;2022-09-09T05:32:13;7.28;;;1.73;;
20802;SDS011;10562;-33.856;151.182;2022-09-09T05:34:45;6.45;;;2.00;;
20802;SDS011;10562;-33.856;151.182;2022-09-09T05:37:17;6.55;;;2.03;;
20802;SDS011;10562;-33.856;151.182;2022-09-09T05:39:49;6.53;;;1.67;;
20802;SDS011;10562;-33.856;151.182;2022-09-09T05:42:20;10.27;;;2.10;;
20802;SDS011;10562;-33.856;151.182;2022-09-09T05:44:51;6.18;;;1.80;;
20802;SDS011;10562;-33.856;151.182;2022-09-09T05:47:22;8.50;;;1.65;;
20802;SDS011;10562;-33.856;151.182;2022-09-09T05:49:57;7.07;;;1.90;;
20802;SDS011;10562;-33.856;151.182;2022-09-09T05:52:28;8.35;;;1.95;;
20802;SDS011;10562;-33.856;151.182;2022-09-09T05:54:59;9.02;;;2.10;;
20802;SDS011;10562;-33.856;151.182;2022-09-09T05:57:31;8.90;;;2.10;;
20802;SDS011;10562;-33.856;151.182;2022-09-09T06:00:02;6.03;;;1.95;;
20802;SDS011;10562;-33.856;151.182;2022-09-09T06:02:33;7.07;;;1.75;;
20802;SDS011;10562;-33.856;151.182;2022-09-09T06:05:07;8.18;;;2.15;;
20802;SDS011;10562;-33.856;151.182;2022-09-09T06:07:38;9.10;;;2.20;;
20802;SDS011;10562;-33.856;151.182;2022-09-09T06:10:11;10.60;;;2.60;;
20802;SDS011;10562;-33.856;151.182;2022-09-09T06:12:41;13.13;;;2.90;;
20802;SDS011;10562;-33.856;151.182;2022-09-09T06:15:12;4.95;;;2.33;;
20802;SDS011;10562;-33.856;151.182;2022-09-09T06:17:43;5.10;;;1.60;;
20802;SDS011;10562;-33.856;151.182;2022-09-09T06:20:17;8.25;;;2.30;;
20802;SDS011;10562;-33.856;151.182;2022-09-09T06:22:48;4.35;;;1.73;;
20802;SDS011;10562;-33.856;151.182;2022-09-09T06:25:19;3.67;;;1.60;;
20802;SDS011;10562;-33.856;151.182;2022-09-09T06:27:51;5.28;;;1.65;;
20802;SDS011;10562;-33.856;151.182;2022-09-09T06:30:22;5.93;;;1.40;;
20802;SDS011;10562;-33.856;151.182;2022-09-09T06:32:54;3.60;;;1.00;;
20802;SDS011;10562;-33.856;151.182;2022-09-09T06:35:27;2.30;;;1.10;;
20802;SDS011;10562;-33.856;151.182;2022-09-09T06:37:58;2.50;;;1.15;;
20802;SDS011;10562;-33.856;151.182;2022-09-09T06:40:29;3.47;;;1.10;;
20802;SDS011;10562;-33.856;151.182;2022-09-09T06:43:00;2.38;;;1.30;;
20802;SDS011;10562;-33.856;151.182;2022-09-09T06:45:32;2.97;;;1.10;;
20802;SDS011;10562;-33.856;151.182;2022-09-09T06:48:03;3.53;;;1.50;;
20802;SDS011;10562;-33.856;151.182;2022-09-09T06:50:36;2.08;;;1.35;;
20802;SDS011;10562;-33.856;151.182;2022-09-09T06:53:07;4.53;;;1.40;;
20802;SDS011;10562;-33.856;151.182;2022-09-09T06:55:38;3.40;;;1.55;;
20802;SDS011;10562;-33.856;151.182;2022-09-09T06:58:10;7.22;;;1.95;;
20802;SDS011;10562;-33.856;151.182;2022-09-09T07:00:41;7.30;;;2.05;;
20802;SDS011;10562;-33.856;151.182;2022-09-09T07:03:12;13.00;;;2.58;;
20802;SDS011;10562;-33.856;151.182;2022-09-09T07:05:44;7.55;;;2.22;;
20802;SDS011;10562;-33.856;151.182;2022-09-09T07:08:24;4.85;;;2.20;;
20802;SDS011;10562;-33.856;151.182;2022-09-09T07:11:01;8.55;;;2.20;;
20802;SDS011;10562;-33.856;151.182;2022-09-09T07:13:33;6.65;;;2.30;;
20802;SDS011;10562;-33.856;151.182;2022-09-09T07:16:04;6.55;;;2.25;;
20802;SDS011;10562;-33.856;151.182;2022-09-09T07:18:36;7.93;;;2.53;;
20802;SDS011;10562;-33.856;151.182;2022-09-09T07:21:08;4.35;;;2.00;;
20802;SDS011;10562;-33.856;151.182;2022-09-09T07:23:42;5.63;;;2.15;;
20802;SDS011;10562;-33.856;151.182;2022-09-09T07:26:13;5.43;;;1.83;;
20802;SDS011;10562;-33.856;151.182;2022-09-09T07:28:46;7.90;;;2.45;;
20802;SDS011;10562;-33.856;151.182;2022-09-09T07:31:17;5.70;;;2.03;;
20802;SDS011;10562;-33.856;151.182;2022-09-09T07:33:51;4.18;;;2.10;;
20802;SDS011;10562;-33.856;151.182;2022-09-09T07:36:24;10.00;;;2.80;;
20802;SDS011;10562;-33.856;151.182;2022-09-09T07:38:56;6.45;;;3.00;;
20802;SDS011;10562;-33.856;151.182;2022-09-09T07:41:29;8.32;;;3.50;;
20802;SDS011;10562;-33.856;151.182;2022-09-09T07:44:04;7.78;;;4.03;;
20802;SDS011;10562;-33.856;151.182;2022-09-09T07:46:37;8.35;;;4.20;;
20802;SDS011;10562;-33.856;151.182;2022-09-09T07:49:08;8.25;;;4.28;;
20802;SDS011;10562;-33.856;151.182;2022-09-09T07:51:45;8.98;;;5.63;;
20802;SDS011;10562;-33.856;151.182;2022-09-09T07:54:17;6.22;;;4.47;;
20802;SDS011;10562;-33.856;151.182;2022-09-09T07:56:49;8.90;;;4.40;;
20802;SDS011;10562;-33.856;151.182;2022-09-09T07:59:21;7.57;;;6.03;;
20802;SDS011;10562;-33.856;151.182;2022-09-09T08:01:53;9.98;;;7.00;;
20802;SDS011;10562;-33.856;151.182;2022-09-09T08:04:29;10.20;;;8.75;;
20802;SDS011;10562;-33.856;151.182;2022-09-09T08:07:02;12.38;;;9.32;;
20802;SDS011;10562;-33.856;151.182;2022-09-09T08:09:34;13.43;;;11.90;;
20802;SDS011;10562;-33.856;151.182;2022-09-09T08:12:05;19.35;;;17.20;;
20802;SDS011;10562;-33.856;151.182;2022-09-09T08:14:39;22.92;;;20.65;;
20802;SDS011;10562;-33.856;151.182;2022-09-09T08:17:10;25.75;;;23.30;;
20802;SDS011;10562;-33.856;151.182;2022-09-09T08:19:40;26.02;;;23.35;;
20802;SDS011;10562;-33.856;151.182;2022-09-09T08:22:13;36.33;;;32.70;;
20802;SDS011;10562;-33.856;151.182;2022-09-09T08:24:44;39.22;;;35.42;;
20802;SDS011;10562;-33.856;151.182;2022-09-09T08:27:15;41.80;;;37.90;;
20802;SDS011;10562;-33.856;151.182;2022-09-09T08:29:46;35.13;;;31.65;;
20802;SDS011;10562;-33.856;151.182;2022-09-09T08:32:17;36.88;;;33.55;;
20802;SDS011;10562;-33.856;151.182;2022-09-09T08:34:49;37.33;;;34.33;;
20802;SDS011;10562;-33.856;151.182;2022-09-09T08:37:22;39.47;;;36.03;;
20802;SDS011;10562;-33.856;151.182;2022-09-09T08:39:53;35.67;;;32.78;;
20802;SDS011;10562;-33.856;151.182;2022-09-09T08:42:35;45.22;;;41.33;;
20802;SDS011;10562;-33.856;151.182;2022-09-09T08:45:14;43.20;;;39.78;;
20802;SDS011;10562;-33.856;151.182;2022-09-09T08:47:54;32.33;;;29.83;;
20802;SDS011;10562;-33.856;151.182;2022-09-09T08:50:35;36.75;;;33.95;;
20802;SDS011;10562;-33.856;151.182;2022-09-09T08:53:11;30.35;;;28.13;;
20802;SDS011;10562;-33.856;151.182;2022-09-09T08:55:47;23.38;;;21.17;;
20802;SDS011;10562;-33.856;151.182;2022-09-09T08:58:21;18.83;;;17.23;;
20802;SDS011;10562;-33.856;151.182;2022-09-09T09:01:00;17.30;;;15.80;;
20802;SDS011;10562;-33.856;151.182;2022-09-09T09:03:52;10.60;;;9.48;;
20802;SDS011;10562;-33.856;151.182;2022-09-09T09:06:34;12.27;;;10.98;;
20802;SDS011;10562;-33.856;151.182;2022-09-09T09:09:14;13.82;;;9.75;;
20802;SDS011;10562;-33.856;151.182;2022-09-09T09:11:52;11.13;;;10.05;;
20802;SDS011;10562;-33.856;151.182;2022-09-09T09:14:27;10.25;;;9.35;;
20802;SDS011;10562;-33.856;151.182;2022-09-09T09:17:00;8.63;;;7.30;;
20802;SDS011;10562;-33.856;151.182;2022-09-09T09:19:33;7.00;;;5.95;;
20802;SDS011;10562;-33.856;151.182;2022-09-09T09:22:10;6.68;;;6.00;;
20802;SDS011;10562;-33.856;151.182;2022-09-09T09:24:52;9.70;;;8.20;;
20802;SDS011;10562;-33.856;151.182;2022-09-09T09:27:28;10.50;;;7.75;;
20802;SDS011;10562;-33.856;151.182;2022-09-09T09:30:02;10.02;;;6.47;;
20802;SDS011;10562;-33.856;151.182;2022-09-09T09:32:46;8.57;;;6.18;;
20802;SDS011;10562;-33.856;151.182;2022-09-09T09:35:22;11.27;;;10.30;;
20802;SDS011;10562;-33.856;151.182;2022-09-09T09:37:53;8.93;;;8.00;;
20802;SDS011;10562;-33.856;151.182;2022-09-09T09:40:26;10.60;;;8.95;;
20802;SDS011;10562;-33.856;151.182;2022-09-09T09:42:57;7.78;;;7.18;;
20802;SDS011;10562;-33.856;151.182;2022-09-09T09:45:34;5.68;;;4.88;;
20802;SDS011;10562;-33.856;151.182;2022-09-09T09:48:11;5.65;;;4.18;;
20802;SDS011;10562;-33.856;151.182;2022-09-09T09:50:46;3.83;;;2.95;;
20802;SDS011;10562;-33.856;151.182;2022-09-09T09:53:21;5.28;;;3.50;;
20802;SDS011;10562;-33.856;151.182;2022-09-09T09:55:56;5.28;;;3.63;;
20802;SDS011;10562;-33.856;151.182;2022-09-09T09:58:30;4.68;;;2.92;;
20802;SDS011;10562;-33.856;151.182;2022-09-09T10:01:02;5.03;;;2.85;;
20802;SDS011;10562;-33.856;151.182;2022-09-09T10:03:33;3.28;;;2.00;;
20802;SDS011;10562;-33.856;151.182;2022-09-09T10:06:07;5.72;;;2.22;;
20802;SDS011;10562;-33.856;151.182;2022-09-09T10:08:44;4.10;;;2.17;;
20802;SDS011;10562;-33.856;151.182;2022-09-09T10:11:25;4.00;;;2.15;;
20802;SDS011;10562;-33.856;151.182;2022-09-09T10:14:04;3.40;;;2.00;;
20802;SDS011;10562;-33.856;151.182;2022-09-09T10:16:47;4.10;;;2.10;;
20802;SDS011;10562;-33.856;151.182;2022-09-09T10:19:29;2.90;;;1.50;;
20802;SDS011;10562;-33.856;151.182;2022-09-09T10:22:07;4.78;;;1.90;;
20802;SDS011;10562;-33.856;151.182;2022-09-09T10:27:55;2.78;;;1.60;;
20802;SDS011;10562;-33.856;151.182;2022-09-09T10:30:41;3.17;;;1.70;;
20802;SDS011;10562;-33.856;151.182;2022-09-09T10:33:25;1.88;;;1.50;;
20802;SDS011;10562;-33.856;151.182;2022-09-09T10:36:02;2.60;;;1.55;;
20802;SDS011;10562;-33.856;151.182;2022-09-09T10:38:44;1.77;;;1.35;;
20802;SDS011;10562;-33.856;151.182;2022-09-09T10:41:18;4.28;;;1.75;;
20802;SDS011;10562;-33.856;151.182;2022-09-09T10:46:53;3.85;;;1.55;;
20802;SDS011;10562;-33.856;151.182;2022-09-09T10:49:52;2.17;;;1.40;;
20802;SDS011;10562;-33.856;151.182;2022-09-09T10:52:36;2.75;;;1.70;;
20802;SDS011;10562;-33.856;151.182;2022-09-09T10:55:17;2.67;;;1.60;;
20802;SDS011;10562;-33.856;151.182;2022-09-09T10:57:51;2.08;;;1.40;;
20802;SDS011;10562;-33.856;151.182;2022-09-09T11:00:27;2.25;;;1.50;;
20802;SDS011;10562;-33.856;151.182;2022-09-09T11:03:06;1.75;;;1.50;;
20802;SDS011;10562;-33.856;151.182;2022-09-09T11:05:46;2.28;;;1.70;;
20802;SDS011;10562;-33.856;151.182;2022-09-09T11:08:21;1.92;;;1.30;;
20802;SDS011;10562;-33.856;151.182;2022-09-09T11:10:55;2.72;;;1.50;;
20802;SDS011;10562;-33.856;151.182;2022-09-09T11:13:33;2.03;;;1.30;;
20802;SDS011;10562;-33.856;151.182;2022-09-09T11:16:15;2.53;;;1.40;;
20802;SDS011;10562;-33.856;151.182;2022-09-09T11:18:55;2.00;;;1.20;;
20802;SDS011;10562;-33.856;151.182;2022-09-09T11:21:29;2.17;;;1.20;;
20802;SDS011;10562;-33.856;151.182;2022-09-09T11:24:06;1.52;;;1.13;;
20802;SDS011;10562;-33.856;151.182;2022-09-09T11:26:44;1.67;;;1.10;;
20802;SDS011;10562;-33.856;151.182;2022-09-09T11:29:24;1.98;;;1.00;;
20802;SDS011;10562;-33.856;151.182;2022-09-09T11:32:12;2.28;;;0.90;;
20802;SDS011;10562;-33.856;151.182;2022-09-09T11:34:56;1.52;;;1.00;;
20802;SDS011;10562;-33.856;151.182;2022-09-09T11:37:44;3.05;;;1.08;;
20802;SDS011;10562;-33.856;151.182;2022-09-09T11:40:31;1.60;;;1.10;;
20802;SDS011;10562;-33.856;151.182;2022-09-09T11:43:03;1.40;;;1.00;;
20802;SDS011;10562;-33.856;151.182;2022-09-09T11:45:39;1.92;;;1.08;;
20802;SDS011;10562;-33.856;151.182;2022-09-09T11:48:23;1.20;;;1.00;;
20802;SDS011;10562;-33.856;151.182;2022-09-09T11:50:58;1.25;;;1.10;;
20802;SDS011;10562;-33.856;151.182;2022-09-09T11:53:31;1.55;;;1.10;;
20802;SDS011;10562;-33.856;151.182;2022-09-09T11:56:07;2.35;;;1.10;;
20802;SDS011;10562;-33.856;151.182;2022-09-09T11:58:44;1.65;;;1.10;;
20802;SDS011;10562;-33.856;151.182;2022-09-09T12:01:36;1.95;;;1.20;;
20802;SDS011;10562;-33.856;151.182;2022-09-09T12:07:20;3.05;;;1.20;;
20802;SDS011;10562;-33.856;151.182;2022-09-09T12:09:59;1.55;;;1.10;;
20802;SDS011;10562;-33.856;151.182;2022-09-09T12:12:33;1.48;;;1.13;;
20802;SDS011;10562;-33.856;151.182;2022-09-09T12:18:02;1.58;;;1.20;;
20802;SDS011;10562;-33.856;151.182;2022-09-09T12:20:51;1.00;;;0.90;;
20802;SDS011;10562;-33.856;151.182;2022-09-09T12:23:35;1.30;;;1.10;;
20802;SDS011;10562;-33.856;151.182;2022-09-09T12:26:25;1.70;;;1.08;;
20802;SDS011;10562;-33.856;151.182;2022-09-09T12:29:12;1.45;;;1.05;;
20802;SDS011;10562;-33.856;151.182;2022-09-09T12:31:51;2.53;;;1.10;;
20802;SDS011;10562;-33.856;151.182;2022-09-09T12:34:38;1.63;;;1.10;;
20802;SDS011;10562;-33.856;151.182;2022-09-09T12:37:15;1.55;;;0.80;;
20802;SDS011;10562;-33.856;151.182;2022-09-09T12:39:54;1.48;;;0.80;;
20802;SDS011;10562;-33.856;151.182;2022-09-09T12:42:26;0.90;;;0.70;;
20802;SDS011;10562;-33.856;151.182;2022-09-09T12:44:59;1.45;;;0.93;;
20802;SDS011;10562;-33.856;151.182;2022-09-09T12:47:35;1.63;;;0.75;;
20802;SDS011;10562;-33.856;151.182;2022-09-09T12:50:15;2.33;;;0.80;;
20802;SDS011;10562;-33.856;151.182;2022-09-09T12:52:50;1.67;;;0.80;;
20802;SDS011;10562;-33.856;151.182;2022-09-09T12:55:25;2.08;;;0.80;;
20802;SDS011;10562;-33.856;151.182;2022-09-09T12:57:59;0.82;;;0.65;;
20802;SDS011;10562;-33.856;151.182;2022-09-09T13:00:32;0.73;;;0.50;;
20802;SDS011;10562;-33.856;151.182;2022-09-09T13:03:19;0.55;;;0.40;;
20802;SDS011;10562;-33.856;151.182;2022-09-09T13:05:50;0.50;;;0.50;;
20802;SDS011;10562;-33.856;151.182;2022-09-09T13:08:23;0.50;;;0.40;;
20802;SDS011;10562;-33.856;151.182;2022-09-09T13:10:54;2.28;;;0.50;;
20802;SDS011;10562;-33.856;151.182;2022-09-09T13:13:35;2.25;;;0.50;;
20802;SDS011;10562;-33.856;151.182;2022-09-09T13:16:18;2.17;;;0.60;;
20802;SDS011;10562;-33.856;151.182;2022-09-09T13:18:51;0.85;;;0.50;;
20802;SDS011;10562;-33.856;151.182;2022-09-09T13:21:31;0.95;;;0.50;;
20802;SDS011;10562;-33.856;151.182;2022-09-09T13:24:06;2.00;;;0.40;;
20802;SDS011;10562;-33.856;151.182;2022-09-09T13:26:55;3.00;;;0.40;;
20802;SDS011;10562;-33.856;151.182;2022-09-09T13:29:28;0.30;;;0.30;;
20802;SDS011;10562;-33.856;151.182;2022-09-09T13:32:03;0.50;;;0.50;;
20802;SDS011;10562;-33.856;151.182;2022-09-09T13:34:36;1.08;;;0.40;;
20802;SDS011;10562;-33.856;151.182;2022-09-09T13:37:16;0.43;;;0.40;;
20802;SDS011;10562;-33.856;151.182;2022-09-09T13:39:53;0.52;;;0.47;;
20802;SDS011;10562;-33.856;151.182;2022-09-09T13:42:25;0.55;;;0.52;;
20802;SDS011;10562;-33.856;151.182;2022-09-09T13:44:57;0.57;;;0.50;;
20802;SDS011;10562;-33.856;151.182;2022-09-09T13:47:31;0.52;;;0.40;;
20802;SDS011;10562;-33.856;151.182;2022-09-09T13:50:13;0.73;;;0.30;;
20802;SDS011;10562;-33.856;151.182;2022-09-09T13:52:48;0.88;;;0.32;;
20802;SDS011;10562;-33.856;151.182;2022-09-09T13:55:23;0.63;;;0.60;;
20802;SDS011;10562;-33.856;151.182;2022-09-09T13:57:55;1.95;;;0.40;;
20802;SDS011;10562;-33.856;151.182;2022-09-09T14:00:28;1.85;;;0.60;;
20802;SDS011;10562;-33.856;151.182;2022-09-09T14:03:00;0.50;;;0.40;;
20802;SDS011;10562;-33.856;151.182;2022-09-09T14:05:31;1.33;;;0.47;;
20802;SDS011;10562;-33.856;151.182;2022-09-09T14:08:03;0.63;;;0.40;;
20802;SDS011;10562;-33.856;151.182;2022-09-09T14:10:37;1.60;;;0.50;;
20802;SDS011;10562;-33.856;151.182;2022-09-09T14:13:07;1.15;;;0.50;;
20802;SDS011;10562;-33.856;151.182;2022-09-09T14:15:38;1.40;;;0.50;;
20802;SDS011;10562;-33.856;151.182;2022-09-09T14:18:09;0.77;;;0.55;;
20802;SDS011;10562;-33.856;151.182;2022-09-09T14:20:42;0.85;;;0.40;;
20802;SDS011;10562;-33.856;151.182;2022-09-09T14:23:13;0.50;;;0.40;;
20802;SDS011;10562;-33.856;151.182;2022-09-09T14:25:45;0.30;;;0.30;;
20802;SDS011;10562;-33.856;151.182;2022-09-09T14:28:17;0.77;;;0.40;;
20802;SDS011;10562;-33.856;151.182;2022-09-09T14:30:48;0.55;;;0.30;;
20802;SDS011;10562;-33.856;151.182;2022-09-09T14:33:19;0.52;;;0.40;;
20802;SDS011;10562;-33.856;151.182;2022-09-09T14:35:55;2.00;;;0.55;;
20802;SDS011;10562;-33.856;151.182;2022-09-09T14:38:28;2.50;;;0.40;;
20802;SDS011;10562;-33.856;151.182;2022-09-09T14:41:02;2.40;;;0.40;;
20802;SDS011;10562;-33.856;151.182;2022-09-09T14:43:33;0.50;;;0.40;;
20802;SDS011;10562;-33.856;151.182;2022-09-09T14:46:06;0.40;;;0.28;;
20802;SDS011;10562;-33.856;151.182;2022-09-09T14:48:38;2.05;;;0.50;;
20802;SDS011;10562;-33.856;151.182;2022-09-09T14:51:10;0.52;;;0.40;;
20802;SDS011;10562;-33.856;151.182;2022-09-09T14:53:42;0.43;;;0.40;;
20802;SDS011;10562;-33.856;151.182;2022-09-09T14:56:16;0.93;;;0.50;;
20802;SDS011;10562;-33.856;151.182;2022-09-09T14:58:48;0.50;;;0.50;;
20802;SDS011;10562;-33.856;151.182;2022-09-09T15:01:19;2.05;;;0.57;;
20802;SDS011;10562;-33.856;151.182;2022-09-09T15:03:51;0.40;;;0.40;;